Time;durP1;ratioP1;P1;durP2;ratioP2;P2;SDS_P1;SDS_P2;PMS_P1;PMS_P2;Temp;Humidity;BMP_temperature;BMP_pressure;BME280_temperature;BME280_humidity;BME280_pressure;Samples;Min_cycle;Max_cycle;Signal;HPM_P1;HPM_P2
2021/01/07 21:03:44;;;;;;;48.90;20.92;;;;;;;-4.90;83.86;99995.41;5141342;27;20352;-53
2021/01/07 21:06:14;;;;;;;49.72;19.58;;;;;;;-4.73;83.46;99989.47;5141541;27;20023;-53
2021/01/07 21:08:40;;;;;;;51.90;21.08;;;;;;;-4.76;81.53;99988.44;5141384;27;20026;-52
2021/01/07 21:11:05;;;;;;;45.72;20.30;;;;;;;-4.72;82.30;99983.63;5141521;27;20024;-52
2021/01/07 21:13:32;;;;;;;48.83;23.00;;;;;;;-4.55;82.04;99989.38;5141492;27;20262;-52
2021/01/07 21:15:58;;;;;;;53.60;23.05;;;;;;;-4.69;82.77;99980.34;5141390;27;20069;-52
2021/01/07 21:18:23;;;;;;;50.95;21.85;;;;;;;-4.40;81.47;99986.69;5141433;27;20308;-52
2021/01/07 21:20:49;;;;;;;46.58;24.08;;;;;;;-4.47;81.98;99974.59;5141300;27;20027;-52
2021/01/07 21:23:15;;;;;;;45.03;20.73;;;;;;;-4.61;80.95;99963.88;5140882;27;20028;-52
2021/01/07 21:25:40;;;;;;;47.33;21.17;;;;;;;-4.39;80.70;99972.38;5140853;27;20031;-52
2021/01/07 21:28:06;;;;;;;36.85;19.77;;;;;;;-4.25;79.56;99980.56;5140641;28;20087;-52
2021/01/07 21:30:31;;;;;;;42.92;19.98;;;;;;;-4.55;80.11;99968.31;5140953;27;20251;-53
2021/01/07 21:32:57;;;;;;;39.13;20.15;;;;;;;-4.36;80.53;99973.38;5140821;27;20027;-52
2021/01/07 21:35:22;;;;;;;43.53;21.15;;;;;;;-4.47;79.83;99964.47;5140824;27;20088;-51
2021/01/07 21:37:48;;;;;;;39.35;19.70;;;;;;;-4.24;79.87;99974.72;5140786;27;20023;-51
2021/01/07 21:40:14;;;;;;;43.47;19.63;;;;;;;-4.44;80.13;99953.63;5140788;27;20035;-52
2021/01/07 21:42:39;;;;;;;43.13;19.95;;;;;;;-4.49;80.34;99955.09;5140753;27;20091;-53
2021/01/07 21:45:08;;;;;;;43.35;20.98;;;;;;;-4.40;81.05;99963.94;5140735;27;20133;-53
2021/01/07 21:47:34;;;;;;;40.17;20.00;;;;;;;-4.30;79.84;99972.78;5140783;27;20272;-53
2021/01/07 21:49:59;;;;;;;36.65;18.50;;;;;;;-4.15;80.04;99959.91;5140755;27;20032;-52
2021/01/07 21:52:25;;;;;;;37.22;17.83;;;;;;;-4.48;80.40;99947.56;5140546;27;20035;-53
2021/01/07 21:54:50;;;;;;;37.33;18.40;;;;;;;-4.38;80.73;99946.31;5140698;27;20347;-51
2021/01/07 21:57:16;;;;;;;36.65;18.67;;;;;;;-4.35;80.18;99954.91;5140532;27;20047;-52
2021/01/07 21:59:42;;;;;;;40.47;20.00;;;;;;;-4.60;81.03;99934.41;5140626;27;20245;-52
2021/01/07 22:02:08;;;;;;;36.03;17.90;;;;;;;-4.63;80.47;99954.47;5140260;27;20043;-51
2021/01/07 22:04:34;;;;;;;39.47;19.75;;;;;;;-4.55;79.45;99941.38;5140472;27;20252;-51
2021/01/07 22:07:03;;;;;;;38.83;19.23;;;;;;;-4.70;80.37;99943.25;5140406;27;20020;-52
2021/01/07 22:09:31;;;;;;;42.65;20.02;;;;;;;-4.73;81.89;99949.03;5140466;27;20312;-52
2021/01/07 22:12:01;;;;;;;43.88;19.92;;;;;;;-4.67;81.58;99943.41;5140331;27;20053;-51
2021/01/07 22:14:27;;;;;;;42.47;19.73;;;;;;;-4.58;80.27;99943.78;5130504;27;20076;-52
2021/01/07 22:17:00;;;;;;;43.60;21.05;;;;;;;-4.67;80.27;99920.66;5126753;28;20031;-51
2021/01/07 22:19:25;;;;;;;50.38;22.00;;;;;;;-4.74;79.91;99922.03;5126555;28;20059;-51
2021/01/07 22:21:51;;;;;;;42.67;22.35;;;;;;;-4.75;81.33;99915.25;5126445;28;20061;-51
2021/01/07 22:24:16;;;;;;;43.75;22.05;;;;;;;-4.79;81.01;99903.28;5126420;27;20058;-52
2021/01/07 22:26:42;;;;;;;54.58;23.02;;;;;;;-4.61;81.21;99927.63;5126514;28;20216;-52
2021/01/07 22:29:07;;;;;;;48.15;22.67;;;;;;;-4.40;79.71;99931.09;5126285;28;20310;-53
2021/01/07 22:31:33;;;;;;;50.50;22.38;;;;;;;-4.56;81.44;99929.56;5126285;28;20019;-53
2021/01/07 22:33:59;;;;;;;44.00;20.40;;;;;;;-4.47;80.37;99918.97;5126238;28;20053;-52
2021/01/07 22:36:27;;;;;;;48.50;20.58;;;;;;;-4.24;80.47;99929.22;5126283;28;20034;-52
2021/01/07 22:38:55;;;;;;;43.47;21.20;;;;;;;-4.89;80.50;99845.59;5126314;28;20099;-51
2021/01/07 22:41:21;;;;;;;46.70;21.70;;;;;;;-4.48;80.63;99911.34;5126110;28;20061;-52
2021/01/07 22:43:47;;;;;;;45.75;19.85;;;;;;;-4.66;80.17;99903.81;5126091;27;20024;-52
2021/01/07 22:46:15;;;;;;;41.35;20.27;;;;;;;-4.69;81.89;99918.06;5126081;28;20031;-52
2021/01/07 22:48:41;;;;;;;46.92;23.30;;;;;;;-4.59;81.38;99910.88;5125853;28;20019;-52
2021/01/07 22:51:07;;;;;;;47.42;22.27;;;;;;;-4.39;81.03;99916.78;5125906;28;20090;-52
2021/01/07 22:53:33;;;;;;;46.08;21.60;;;;;;;-4.42;80.28;99914.97;5125987;28;20053;-51
2021/01/07 22:55:58;;;;;;;46.05;21.00;;;;;;;-4.45;80.82;99914.00;5125847;28;20071;-52
2021/01/07 22:58:24;;;;;;;42.20;20.58;;;;;;;-4.32;80.23;99912.84;5125796;28;20030;-52
2021/01/07 23:00:50;;;;;;;48.50;22.13;;;;;;;-4.32;80.71;99906.13;5125323;28;20020;-51
2021/01/07 23:03:15;;;;;;;43.38;21.88;;;;;;;-4.16;80.02;99897.53;5125811;28;20061;-51
2021/01/07 23:05:41;;;;;;;43.17;21.95;;;;;;;-4.11;79.45;99895.19;5125720;28;20031;-51
2021/01/07 23:08:07;;;;;;;41.80;19.80;;;;;;;-4.36;80.43;99897.56;5125654;27;20354;-51
2021/01/07 23:10:33;;;;;;;44.50;21.75;;;;;;;-4.14;79.66;99900.13;5125674;28;20038;-51
2021/01/07 23:12:59;;;;;;;43.45;22.33;;;;;;;-4.20;80.39;99896.53;5125577;28;20042;-50
2021/01/07 23:15:25;;;;;;;42.10;21.00;;;;;;;-4.30;79.51;99903.66;5125519;28;20030;-51
2021/01/07 23:17:50;;;;;;;46.08;21.83;;;;;;;-4.34;80.57;99905.19;5125475;28;20225;-52
2021/01/07 23:20:16;;;;;;;44.55;20.77;;;;;;;-4.44;80.34;99910.69;5125427;28;20046;-51
2021/01/07 23:22:41;;;;;;;45.92;22.27;;;;;;;-4.63;81.26;99891.31;5125427;28;20122;-51
2021/01/07 23:25:08;;;;;;;45.22;23.75;;;;;;;-4.35;81.51;99891.72;5123354;28;20062;-52
2021/01/07 23:27:33;;;;;;;44.00;23.35;;;;;;;-4.32;80.31;99870.72;5122570;28;20375;-53
2021/01/07 23:29:59;;;;;;;48.30;23.90;;;;;;;-4.00;80.24;99889.75;5104718;28;20020;-52
2021/01/07 23:32:24;;;;;;;47.05;23.67;;;;;;;-4.24;79.50;99860.94;5104691;28;20032;-52
2021/01/07 23:34:50;;;;;;;50.33;24.70;;;;;;;-4.14;79.59;99877.34;5104722;28;20042;-52
2021/01/07 23:37:16;;;;;;;53.08;22.92;;;;;;;-4.27;79.76;99881.91;5104674;28;20024;-52
2021/01/07 23:39:44;;;;;;;42.47;21.25;;;;;;;-4.38;80.30;99871.34;5104597;28;20043;-51
2021/01/07 23:42:09;;;;;;;40.65;20.83;;;;;;;-4.48;80.11;99878.50;5104552;28;20308;-51
2021/01/07 23:44:35;;;;;;;44.15;22.30;;;;;;;-4.47;81.33;99886.13;5104505;28;20027;-51
2021/01/07 23:47:02;;;;;;;48.38;22.58;;;;;;;-4.57;81.69;99869.72;5104567;28;20107;-51
2021/01/07 23:49:29;;;;;;;52.63;23.95;;;;;;;-4.43;81.46;99879.53;5104330;28;20087;-52
2021/01/07 23:51:55;;;;;;;45.90;23.27;;;;;;;-4.43;80.09;99852.59;5104511;28;20038;-52
2021/01/07 23:54:21;;;;;;;42.30;21.55;;;;;;;-4.29;80.82;99870.00;5104378;28;20086;-52
2021/01/07 23:56:53;;;;;;;42.80;21.67;;;;;;;-4.34;81.58;99867.28;5121268;28;20332;-52
2021/01/07 23:59:20;;;;;;;40.78;19.92;;;;;;;-4.38;80.95;99855.31;5124507;28;20038;-51
